Latest Weather Observations for St George

IDQ60801

Issued at 9:52 pm EST Tuesday 4 August 2020 (issued every 10 minutes, with the page automatically refreshed every 10 minutes)

About weather observations | Map of weather stations | Latest weather observations for QLD | Other Formats
Station Details ID: 043109 Name: ST GEORGE AIRPORT Lat: -28.05 Lon: 148.59 Height: 198.5 m
Data from the previous 72 hours. | See also: Recent months at St George
Date/Time
EST
Temp
°C
App
Temp
°C
Dew
Point
°C
Rel
Hum
%
Delta-T
°C
Wind Press
QNH
hPa
Press
MSL
hPa
Rain since
9am
mm
Dir  Spd
km/h
Gust
km/h
Spd
kts
Gust
kts
04/09:30pm 10.4 8.5 0.7 51 4.0 CALM 0 0 0 0 1014.3 1014.2 -
04/09:00pm 11.2 9.4 1.5 51 4.1 CALM 0 0 0 0 1014.3 1014.2 -
04/08:30pm 11.4 9.7 1.9 52 4.1 CALM 0 0 0 0 1014.2 1014.1 -
04/08:00pm 12.5 10.6 0.6 44 5.0 CALM 0 0 0 0 1014.1 1014.0 -
04/07:30pm 13.8 11.9 0.5 40 5.7 CALM 0 0 0 0 1014.1 1014.0 -
04/07:00pm 14.9 12.9 -0.4 35 6.5 CALM 0 0 0 0 1013.8 1013.7 -
04/06:30pm 16.7 13.6 0.4 33 7.1 SW 6 7 3 4 1013.4 1013.3 -
04/06:00pm 17.9 14.2 0.1 30 7.8 SW 9 11 5 6 1013.2 1013.1 -
04/05:30pm 19.4 15.3 -0.1 27 8.6 SW 11 15 6 8 1012.9 1012.8 -
04/05:00pm 22.3 17.3 -1.1 21 10.4 SW 15 22 8 12 1012.6 1012.4 -
04/04:30pm 23.5 17.5 -1.4 19 11.1 W 20 26 11 14 1012.5 1012.3 -
04/04:00pm 23.8 17.8 -1.9 18 11.4 WSW 20 28 11 15 1012.4 1012.2 -
04/03:30pm 24.2 18.3 -2.4 17 11.7 W 19 24 10 13 1012.3 1012.1 -
04/03:00pm 24.4 18.0 -1.4 18 11.6 WSW 22 32 12 17 1012.4 1012.2 -
04/02:30pm 24.9 19.4 0.4 20 11.5 WNW 19 33 10 18 1012.4 1012.2 -
04/02:00pm 24.4 18.9 0.7 21 11.1 W 19 35 10 19 1012.7 1012.6 -
04/01:30pm 24.3 18.8 0.6 21 11.1 WNW 19 32 10 17 1012.9 1012.8 -
04/01:00pm 24.5 - - - - - - - - - 1013.4 1013.3 -
04/12:30pm 23.8 - - - - NNW 17 28 9 15 1013.8 1013.7 -
04/09:00am 16.0 11.1 5.0 48 5.3 N 20 28 11 15 1015.9 1015.8 0.0
04/08:30am 15.2 11.6 5.1 51 4.8 N 13 17 7 9 1016.0 1015.9 0.0
04/08:00am 13.3 9.6 4.5 55 4.1 N 13 17 7 9 1016.2 1016.0 0.0
04/07:30am 11.3 8.0 4.3 62 3.2 NNE 11 13 6 7 1015.9 1015.8 0.0
04/07:00am 10.1 7.1 4.0 66 2.7 N 9 13 5 7 1015.9 1015.8 0.0
04/06:30am 10.7 7.0 4.2 64 2.9 N 13 17 7 9 1015.8 1015.7 0.0
04/06:00am 10.4 7.0 4.1 65 2.8 N 11 13 6 7 1015.7 1015.6 0.0
04/05:30am 10.8 7.9 4.5 65 2.9 N 9 11 5 6 1015.7 1015.6 0.0
04/05:00am 9.7 7.6 3.9 67 2.6 W 4 9 2 5 1015.6 1015.5 0.0
04/04:30am 11.1 7.9 5.0 66 2.8 N 11 13 6 7 1015.3 1015.2 0.0
04/04:00am 9.7 6.6 3.7 66 2.6 NNE 9 11 5 6 1015.5 1015.4 0.0
04/03:30am 10.1 6.8 4.3 67 2.6 NNE 11 13 6 7 1015.5 1015.4 0.0
04/03:00am 8.8 6.3 3.8 71 2.2 NNW 6 9 3 5 1015.9 1015.8 0.0
04/02:30am 11.4 8.4 4.2 61 3.3 N 9 11 5 6 1015.9 1015.8 0.0
04/02:00am 8.9 6.2 3.7 70 2.3 N 7 9 4 5 1016.2 1016.0 0.0
04/01:30am 9.7 6.6 3.7 66 2.7 N 9 11 5 6 1016.4 1016.2 0.0
04/01:00am 10.0 8.0 4.6 69 2.4 NW 4 6 2 3 1016.5 1016.3 0.0
04/12:30am 10.5 8.4 5.9 73 2.2 WNW 6 9 3 5 1016.5 1016.3 0.0
04/12:00am 10.9 9.3 4.4 64 2.9 NNW 2 7 1 4 1016.6 1016.4 0.0
 
Date/Time
EST
Temp
°C
App
Temp
°C
Dew
Point
°C
Rel
Hum
%
Delta-T
°C
Wind Press
QNH
hPa
Press
MSL
hPa
Rain since
9am
mm
Dir  Spd
km/h
Gust
km/h
Spd
kts
Gust
kts
03/11:30pm 11.3 10.0 4.3 62 3.2 CALM 0 0 0 0 1016.9 1016.7 0.0
03/11:00pm 12.3 10.4 5.0 61 3.4 WNW 4 7 2 4 1016.8 1016.6 0.0
03/10:30pm 12.3 10.9 3.5 55 4.0 CALM 0 0 0 0 1016.6 1016.4 0.0
03/10:00pm 14.3 11.9 4.3 51 4.6 WNW 6 15 3 8 1016.7 1016.5 0.0
03/09:30pm 14.6 13.4 4.6 51 4.7 CALM 0 0 0 0 1016.7 1016.5 0.0
03/09:00pm 15.4 13.0 4.5 48 5.1 E 6 9 3 5 1016.9 1016.7 0.0
03/08:30pm 14.9 12.6 4.6 50 4.8 ESE 6 7 3 4 1016.7 1016.5 0.0
03/08:00pm 14.1 13.0 5.2 55 4.2 CALM 0 0 0 0 1016.6 1016.4 0.0
03/07:30pm 14.1 11.7 4.1 51 4.6 ESE 6 7 3 4 1016.6 1016.4 0.0
03/07:00pm 14.2 12.8 3.7 49 4.8 CALM 0 0 0 0 1016.4 1016.2 0.0
03/06:30pm 15.7 14.1 2.2 40 6.1 CALM 0 0 0 0 1015.8 1015.7 0.0
03/06:00pm 17.9 15.4 1.8 34 7.3 NE 4 6 2 3 1015.6 1015.5 0.0
03/05:30pm 20.5 17.5 1.9 29 8.7 NE 7 9 4 5 1015.6 1015.5 0.0
03/05:00pm 21.8 18.7 1.5 26 9.5 NNE 7 13 4 7 1015.7 1015.6 0.0
03/04:30pm 22.5 18.7 1.5 25 9.8 N 11 17 6 9 1015.7 1015.6 0.0
03/04:00pm 22.9 19.8 1.3 24 10.1 NE 7 11 4 6 1015.8 1015.7 0.0
03/03:30pm 23.0 20.0 0.8 23 10.3 W 6 11 3 6 1016.0 1015.9 0.0
03/03:00pm 23.5 20.1 1.8 24 10.3 SW 9 17 5 9 1016.3 1016.1 0.0
03/02:30pm 23.0 19.1 1.4 24 10.1 WSW 11 17 6 9 1016.8 1016.6 0.0
03/02:00pm 22.6 19.0 0.4 23 10.2 WNW 9 20 5 11 1017.3 1017.2 0.0
03/01:30pm 22.8 19.3 1.2 24 10.1 N 9 17 5 9 1017.8 1017.7 0.0
03/01:00pm 22.9 19.4 1.3 24 10.1 NW 9 22 5 12 1018.3 1018.2 0.0
03/12:30pm 22.1 18.6 1.2 25 9.7 NW 9 20 5 11 1018.8 1018.7 0.0
03/12:00pm 21.7 17.6 -0.3 23 9.9 NNW 11 24 6 13 1019.5 1019.4 0.0
03/11:30am 21.2 17.7 3.4 31 8.6 NNW 11 17 6 9 1020.0 1019.9 0.0
03/11:00am 20.3 16.3 4.8 36 7.6 N 15 20 8 11 1020.5 1020.4 0.0
03/10:30am 19.3 15.7 5.0 39 7.0 N 13 17 7 9 1020.9 1020.8 0.0
03/10:00am 17.8 13.3 4.4 41 6.4 N 17 22 9 12 1021.2 1021.2 0.0
03/09:30am 16.4 12.5 3.5 42 6.0 NNW 13 20 7 11 1021.3 1021.3 0.0
03/09:00am 14.9 11.4 3.7 47 5.2 N 11 17 6 9 1021.5 1021.4 0.0
03/08:30am 12.7 9.5 3.1 52 4.3 N 9 15 5 8 1021.5 1021.4 0.0
03/08:00am 10.4 9.1 4.1 65 2.8 CALM 0 0 0 0 1021.3 1021.3 0.0
03/07:30am 6.2 4.7 3.2 81 1.3 CALM 0 2 0 1 1021.2 1021.2 0.0
03/07:00am 5.1 2.1 1.0 75 1.6 NE 6 7 3 4 1020.8 1020.7 0.0
03/06:30am 6.1 3.3 1.8 74 1.8 ENE 6 9 3 5 1020.7 1020.6 0.0
03/06:00am 6.0 3.0 2.3 77 1.5 ENE 7 11 4 6 1020.4 1020.3 0.0
03/05:30am 5.6 2.5 1.5 75 1.7 E 7 9 4 5 1020.2 1020.1 0.0
03/05:00am 5.3 2.3 1.1 74 1.7 ESE 6 7 3 4 1019.9 1019.8 0.0
03/04:30am 6.0 3.8 1.3 72 1.9 E 2 9 1 5 1020.1 1020.0 0.0
03/04:00am 7.4 4.6 3.3 75 1.8 SE 7 9 4 5 1020.0 1019.9 0.0
03/03:30am 6.1 3.0 1.1 70 2.0 SE 7 11 4 6 1020.1 1020.0 0.0
03/03:00am 7.5 4.2 2.4 70 2.1 SE 9 11 5 6 1020.3 1020.2 0.0
03/02:30am 7.7 4.4 2.6 70 2.2 SE 9 9 5 5 1020.4 1020.3 0.0
03/02:00am 8.0 5.2 2.9 70 2.2 ESE 7 9 4 5 1020.5 1020.4 0.0
03/01:30am 7.7 5.5 1.3 64 2.6 NE 2 7 1 4 1020.7 1020.6 0.0
03/01:00am 8.5 5.6 1.6 62 2.9 E 6 7 3 4 1020.9 1020.8 0.0
03/12:30am 9.0 6.0 1.9 61 3.0 E 7 9 4 5 1020.9 1020.8 0.0
03/12:00am 10.6 7.2 1.9 55 3.7 ESE 9 11 5 6 1020.9 1020.8 0.0
 
Date/Time
EST
Temp
°C
App
Temp
°C
Dew
Point
°C
Rel
Hum
%
Delta-T
°C
Wind Press
QNH
hPa
Press
MSL
hPa
Rain since
9am
mm
Dir  Spd
km/h
Gust
km/h
Spd
kts
Gust
kts
02/11:30pm 11.0 7.9 1.3 51 4.1 E 7 11 4 6 1021.1 1021.1 0.0
02/11:00pm 12.2 8.8 2.1 50 4.4 E 9 13 5 7 1021.3 1021.3 0.0
02/10:30pm 12.8 8.6 1.8 47 4.8 ESE 13 15 7 8 1021.5 1021.4 0.0
02/10:00pm 13.1 9.4 2.6 49 4.6 ESE 11 15 6 8 1021.6 1021.5 0.0
02/09:30pm 10.3 7.3 1.9 56 3.6 SE 7 9 4 5 1021.5 1021.4 0.0
02/09:00pm 11.4 8.5 2.7 55 3.8 SSE 7 9 4 5 1021.6 1021.5 0.0
02/08:30pm 11.6 8.7 2.6 54 3.9 SE 7 9 4 5 1021.6 1021.5 0.0
02/08:00pm 12.0 8.6 1.9 50 4.4 SE 9 11 5 6 1021.5 1021.4 0.0
02/07:30pm 13.1 10.1 2.1 47 4.8 SE 7 9 4 5 1021.5 1021.4 0.0
02/07:00pm 13.6 10.0 0.3 40 5.6 SSE 9 11 5 6 1021.3 1021.3 0.0
02/06:30pm 16.0 12.8 0.6 35 6.7 SE 7 13 4 7 1021.2 1021.2 0.0
02/06:00pm 17.5 13.8 0.2 31 7.6 S 9 11 5 6 1021.2 1021.2 0.0
02/05:30pm 18.9 15.2 0.0 28 8.4 SSW 9 9 5 5 1021.1 1021.1 0.0
02/05:00pm 21.1 17.4 -0.2 24 9.5 S 9 13 5 7 1021.1 1021.1 0.0
02/04:30pm 22.0 18.4 0.5 24 9.9 SSE 9 11 5 6 1021.1 1021.1 0.0
02/04:00pm 22.2 19.7 -1.1 21 10.3 SE 2 7 1 4 1021.1 1021.1 0.0
02/03:30pm 22.7 19.5 -0.7 21 10.5 WNW 6 11 3 6 1021.1 1021.1 0.0
02/03:00pm 22.0 18.4 -2.0 20 10.4 SSW 7 13 4 7 1021.2 1021.2 0.0
02/02:30pm 22.5 18.5 0.4 23 10.1 NW 11 15 6 8 1021.5 1021.4 0.0
02/02:00pm 21.9 18.3 0.4 24 9.8 WNW 9 13 5 7 1021.8 1021.7 0.0
02/01:30pm 22.5 19.1 2.1 26 9.7 NNW 9 19 5 10 1022.1 1022.0 0.0
02/01:00pm 21.4 17.8 0.6 25 9.5 N 9 17 5 9 1022.5 1022.4 0.0
02/12:30pm 22.0 19.1 2.7 28 9.2 WSW 7 11 4 6 1023.0 1022.9 0.0
02/12:00pm 20.9 17.4 1.2 27 9.0 NW 9 15 5 8 1023.6 1023.5 0.0
02/11:30am 20.8 17.3 3.5 32 8.3 NW 11 15 6 8 1024.1 1024.0 0.0
02/11:00am 19.4 16.2 5.1 39 7.0 NNW 11 15 6 8 1024.6 1024.5 0.0
02/10:30am 18.7 14.9 5.9 43 6.4 NNW 15 19 8 10 1025.2 1025.1 0.0
02/10:00am 17.8 14.4 6.0 46 5.8 NNW 13 20 7 11 1025.4 1025.4 0.0
02/09:30am 16.4 13.9 4.8 46 5.5 NNE 7 11 4 6 1025.5 1025.5 0.0
02/09:00am 14.7 11.9 3.2 46 5.2 NE 7 9 4 5 1025.5 1025.5 -
02/08:30am 12.2 9.5 3.9 57 3.8 ENE 7 11 4 6 1025.3 1025.2 -
02/08:00am 9.2 8.0 4.8 74 2.0 CALM 0 6 0 3 1025.3 1025.2 -
02/07:30am 4.5 2.9 2.5 87 0.8 CALM 0 0 0 0 1025.2 1025.1 -
02/07:00am 3.3 1.5 1.0 85 0.9 CALM 0 0 0 0 1025.1 1025.0 -
02/06:30am 4.0 2.4 2.2 88 0.7 CALM 0 0 0 0 1024.7 1024.6 -
02/06:00am 3.4 1.6 1.1 85 0.9 CALM 0 0 0 0 1024.2 1024.1 -
02/05:30am 3.8 2.0 1.5 85 0.9 CALM 0 4 0 2 1024.0 1023.9 -
02/05:00am 4.0 1.1 1.5 84 1.0 E 6 7 3 4 1023.8 1023.7 -
02/04:30am 4.7 1.8 2.6 86 0.9 SE 7 9 4 5 1023.7 1023.6 -
02/04:00am 4.4 1.4 2.3 86 0.8 SE 7 7 4 4 1023.5 1023.4 -
02/03:30am 4.4 2.7 1.8 83 1.0 CALM 0 0 0 0 1023.4 1023.3 -
02/03:00am 4.9 3.2 2.1 82 1.1 CALM 0 0 0 0 1023.5 1023.4 -
02/02:30am 5.3 3.7 2.3 81 1.2 CALM 0 0 0 0 1023.7 1023.6 -
02/02:00am 5.8 4.2 2.3 78 1.4 CALM 0 0 0 0 1023.7 1023.6 -
02/01:30am 5.5 3.8 2.0 78 1.4 CALM 0 0 0 0 1024.0 1023.9 -
02/01:00am 6.8 5.3 3.1 77 1.6 CALM 0 0 0 0 1024.2 1024.1 -
02/12:30am 7.0 5.6 3.8 80 1.4 CALM 0 0 0 0 1024.2 1024.1 -
02/12:00am 7.7 5.1 3.2 73 1.9 E 6 6 3 3 1024.2 1024.1 -
 
Date/Time
EST
Temp
°C
App
Temp
°C
Dew
Point
°C
Rel
Hum
%
Delta-T
°C
Wind Press
QNH
hPa
Press
MSL
hPa
Rain since
9am
mm
Dir  Spd
km/h
Gust
km/h
Spd
kts
Gust
kts
01/11:30pm 8.1 6.8 4.1 76 1.8 CALM 0 6 0 3 1024.3 1024.2 -
01/11:00pm 8.0 6.2 3.3 72 2.0 ESE 2 6 1 3 1024.3 1024.2 -
01/10:30pm 8.1 6.9 4.5 78 1.6 CALM 0 0 0 0 1024.1 1024.0 -
01/10:00pm 7.7 6.2 3.0 72 2.0 CALM 0 6 0 3 1024.2 1024.1 0.0

Other formats

Comma delimited format used in spreadsheet applications
http://www.bom.gov.au/fwo/IDQ60801/IDQ60801.94517.axf

JavaScript Object Notation format (JSON) in row-major order
http://www.bom.gov.au/fwo/IDQ60801/IDQ60801.94517.json

Data quality

Most of these data are generated automatically and are frequently updated. Quality checks on data are not normally performed. It is possible for incorrect values to appear. Refer to information at About Latest Weather Observations and please check the disclaimer before using these data.